createdAt,value
2019-06-01T00:00:32.521Z,3.40
2019-06-01T00:03:03.062Z,3.33
2019-06-01T00:05:32.556Z,4.73
2019-06-01T00:08:01.777Z,3.30
2019-06-01T00:10:30.651Z,2.97
2019-06-01T00:12:59.736Z,3.33
2019-06-01T00:15:29.011Z,3.73
2019-06-01T00:17:58.226Z,3.83
2019-06-01T00:20:27.096Z,4.10
2019-06-01T00:22:56.324Z,4.27
2019-06-01T00:25:25.312Z,3.70
2019-06-01T00:27:54.441Z,4.20
2019-06-01T00:30:27.336Z,4.37
2019-06-01T00:32:55.179Z,2.93
2019-06-01T00:35:24.435Z,3.30
2019-06-01T00:37:53.416Z,4.60
2019-06-01T00:40:23.177Z,4.90
2019-06-01T00:42:52.519Z,5.33
2019-06-01T00:45:21.879Z,3.67
2019-06-01T00:47:51.171Z,3.80
2019-06-01T00:50:20.508Z,4.40
2019-06-01T00:52:49.599Z,3.80
2019-06-01T00:55:19.172Z,10.47
2019-06-01T00:57:48.174Z,6.63
2019-06-01T01:00:17.276Z,4.30
2019-06-01T01:02:47.952Z,4.40
2019-06-01T01:05:18.161Z,3.83
2019-06-01T01:07:48.830Z,5.10
2019-06-01T01:10:18.920Z,3.97
2019-06-01T01:13:06.923Z,4.00
2019-06-01T01:15:36.117Z,4.17
2019-06-01T01:18:07.012Z,3.13
2019-06-01T01:20:37.115Z,3.20
2019-06-01T01:23:06.443Z,3.93
2019-06-01T01:25:35.667Z,3.13
2019-06-01T01:28:05.537Z,3.60
2019-06-01T01:30:34.846Z,3.63
2019-06-01T01:33:04.616Z,3.33
2019-06-01T01:35:33.882Z,3.43
2019-06-01T01:38:07.716Z,3.47
2019-06-01T01:40:36.591Z,3.60
2019-06-01T01:43:05.780Z,4.20
2019-06-01T01:45:35.392Z,3.80
2019-06-01T01:48:04.530Z,3.50
2019-06-01T01:50:34.544Z,3.70
2019-06-01T01:53:03.540Z,4.13
2019-06-01T01:55:32.488Z,4.17
2019-06-01T01:58:01.703Z,4.07
2019-06-01T02:00:36.825Z,3.53
2019-06-01T02:03:06.074Z,4.13
2019-06-01T02:05:35.352Z,3.57
2019-06-01T02:08:04.894Z,4.13
2019-06-01T02:10:33.840Z,3.77
2019-06-01T02:13:03.431Z,4.27
2019-06-01T02:15:32.376Z,4.77
2019-06-01T02:18:05.846Z,3.73
2019-06-01T02:20:34.962Z,4.00
2019-06-01T02:23:04.537Z,4.27
2019-06-01T02:25:35.148Z,4.50
2019-06-01T02:28:04.446Z,3.40
2019-06-01T02:30:33.316Z,4.50
2019-06-01T02:33:04.546Z,4.00
2019-06-01T02:35:33.276Z,3.10
2019-06-01T02:38:03.624Z,4.33
2019-06-01T02:40:34.747Z,3.60
2019-06-01T02:43:06.577Z,4.10
2019-06-01T02:45:36.203Z,4.40
2019-06-01T02:48:06.333Z,4.00
2019-06-01T02:50:35.982Z,4.57
2019-06-01T02:53:05.831Z,4.17
2019-06-01T02:55:35.563Z,3.40
2019-06-01T02:58:04.551Z,3.97
2019-06-01T03:01:08.145Z,3.80
2019-06-01T03:03:38.807Z,4.33
2019-06-01T03:06:10.233Z,4.50
2019-06-01T03:08:41.085Z,3.73
2019-06-01T03:11:13.656Z,3.50
2019-06-01T03:13:44.643Z,5.00
2019-06-01T03:16:16.585Z,4.20
2019-06-01T03:18:47.022Z,4.20
2019-06-01T03:21:19.389Z,4.37
2019-06-01T03:23:49.967Z,5.03
2019-06-01T03:26:20.429Z,5.67
2019-06-01T03:28:52.378Z,5.27
2019-06-01T03:31:21.772Z,5.10
2019-06-01T03:33:50.883Z,4.97
2019-06-01T03:36:20.068Z,5.60
2019-06-01T03:38:49.992Z,4.20
2019-06-01T03:41:19.748Z,6.90
2019-06-01T03:43:48.731Z,5.47
2019-06-01T03:46:18.457Z,4.57
2019-06-01T03:48:48.676Z,4.03
2019-06-01T03:51:17.811Z,3.97
2019-06-01T03:53:47.418Z,3.60
2019-06-01T03:56:16.829Z,4.40
2019-06-01T03:58:45.924Z,3.90
2019-06-01T04:01:14.942Z,4.97
2019-06-01T04:03:44.515Z,3.80
2019-06-01T04:06:13.944Z,4.50
2019-06-01T04:08:43.350Z,4.60
2019-06-01T04:11:12.623Z,5.03
2019-06-01T04:13:42.332Z,4.40
2019-06-01T04:16:12.063Z,4.43
2019-06-01T04:18:41.072Z,3.90
2019-06-01T04:21:12.105Z,4.20
2019-06-01T04:23:41.632Z,3.90
2019-06-01T04:26:12.300Z,3.90
2019-06-01T04:28:41.447Z,4.30
2019-06-01T04:31:10.947Z,4.10
2019-06-01T04:33:39.900Z,3.57
2019-06-01T04:36:09.127Z,3.80
2019-06-01T04:38:38.614Z,5.57
2019-06-01T04:41:08.116Z,4.70
2019-06-01T04:43:36.876Z,4.03
2019-06-01T04:46:06.464Z,6.20
2019-06-01T04:48:35.268Z,3.73
2019-06-01T04:51:04.947Z,4.97
2019-06-01T04:53:34.223Z,3.53
2019-06-01T04:56:03.269Z,3.13
2019-06-01T04:58:32.504Z,3.20
2019-06-01T05:01:02.163Z,5.10
2019-06-01T05:03:31.984Z,3.80
2019-06-01T05:06:00.877Z,3.27
2019-06-01T05:08:30.328Z,5.70
2019-06-01T05:10:59.679Z,3.60
2019-06-01T05:13:29.226Z,6.83
2019-06-01T05:15:58.811Z,5.90
2019-06-01T05:18:27.668Z,7.30
2019-06-01T05:20:57.615Z,10.30
2019-06-01T05:23:27.068Z,4.73
2019-06-01T05:25:56.644Z,4.77
2019-06-01T05:28:25.988Z,3.60
2019-06-01T05:30:55.761Z,3.63
2019-06-01T05:33:36.869Z,3.10
2019-06-01T05:35:55.931Z,3.40
2019-06-01T05:38:25.424Z,3.80
2019-06-01T05:40:54.440Z,3.60
2019-06-01T05:43:23.792Z,4.20
2019-06-01T05:45:52.971Z,3.67
2019-06-01T05:48:25.450Z,4.10
2019-06-01T05:50:53.255Z,3.03
2019-06-01T05:53:23.104Z,2.70
2019-06-01T05:55:52.452Z,3.10
2019-06-01T05:58:21.846Z,3.07
2019-06-01T06:00:51.452Z,3.07
2019-06-01T06:03:26.598Z,4.03
2019-06-01T06:05:52.155Z,2.80
2019-06-01T06:08:22.184Z,3.17
2019-06-01T06:10:51.343Z,4.30
2019-06-01T06:13:21.638Z,3.30
2019-06-01T06:15:51.330Z,2.93
2019-06-01T06:18:20.551Z,3.63
2019-06-01T06:20:49.790Z,3.33
2019-06-01T06:23:18.954Z,3.20
2019-06-01T06:25:47.860Z,2.83
2019-06-01T06:28:16.947Z,2.90
2019-06-01T06:30:46.131Z,3.50
2019-06-01T06:33:15.222Z,3.00
2019-06-01T06:35:44.520Z,2.73
2019-06-01T06:38:13.936Z,2.70
2019-06-01T06:40:43.219Z,2.50
2019-06-01T06:43:22.141Z,3.00
2019-06-01T06:45:43.886Z,2.63
2019-06-01T06:48:13.284Z,2.50
2019-06-01T06:50:42.156Z,2.03
2019-06-01T06:53:24.481Z,2.50
2019-06-01T06:55:42.622Z,2.50
2019-06-01T06:58:12.358Z,2.80
2019-06-01T07:00:41.439Z,3.10
2019-06-01T07:03:10.831Z,2.90
2019-06-01T07:05:40.395Z,3.40
2019-06-01T07:08:09.633Z,2.77
2019-06-01T07:10:39.287Z,4.80
2019-06-01T07:13:08.558Z,2.33
2019-06-01T07:15:37.830Z,2.40
2019-06-01T07:18:06.711Z,2.00
2019-06-01T07:20:35.688Z,2.10
2019-06-01T07:23:05.031Z,3.70
2019-06-01T07:25:34.111Z,3.30
2019-06-01T07:28:03.341Z,2.57
2019-06-01T07:30:49.433Z,3.30
2019-06-01T07:33:03.964Z,2.40
2019-06-01T07:35:33.052Z,2.87
2019-06-01T07:38:02.836Z,2.53
2019-06-01T07:40:33.028Z,2.30
2019-06-01T07:43:02.249Z,2.60
2019-06-01T07:45:33.565Z,2.60
2019-06-01T07:48:04.740Z,5.17
2019-06-01T07:50:34.284Z,3.87
2019-06-01T07:53:03.688Z,3.47
2019-06-01T07:55:33.089Z,2.53
2019-06-01T07:58:04.677Z,2.03
2019-06-01T08:00:34.088Z,2.20
2019-06-01T08:03:05.904Z,2.10
2019-06-01T08:05:35.523Z,2.50
2019-06-01T08:08:04.745Z,2.23
2019-06-01T08:10:33.754Z,3.53
2019-06-01T08:13:05.498Z,1.90
2019-06-01T08:15:34.471Z,2.50
2019-06-01T08:18:03.763Z,2.10
2019-06-01T08:20:33.368Z,2.70
2019-06-01T08:23:02.713Z,2.30
2019-06-01T08:25:32.875Z,2.27
2019-06-01T08:28:02.824Z,2.00
2019-06-01T08:30:32.701Z,2.07
2019-06-01T08:33:02.847Z,2.40
2019-06-01T08:35:33.176Z,2.70
2019-06-01T08:38:02.864Z,2.30
2019-06-01T08:40:33.489Z,4.43
2019-06-01T08:43:04.826Z,2.67
2019-06-01T08:45:36.986Z,2.90
2019-06-01T08:48:04.823Z,2.37
2019-06-01T08:50:34.077Z,2.00
2019-06-01T08:53:03.796Z,2.83
2019-06-01T08:55:34.494Z,2.03
2019-06-01T08:58:03.564Z,3.30
2019-06-01T09:00:32.683Z,3.10
2019-06-01T09:03:03.412Z,3.87
2019-06-01T09:05:33.163Z,4.57
2019-06-01T09:08:04.732Z,2.80
2019-06-01T09:10:33.684Z,3.13
2019-06-01T09:13:03.211Z,2.30
2019-06-01T09:15:33.735Z,2.20
2019-06-01T09:18:02.668Z,4.40
2019-06-01T09:20:35.429Z,3.13
2019-06-01T09:23:02.661Z,2.40
2019-06-01T09:25:31.796Z,2.93
2019-06-01T09:28:01.242Z,3.80
2019-06-01T09:30:32.104Z,2.10
2019-06-01T09:33:01.396Z,3.33
2019-06-01T09:35:51.258Z,2.30
2019-06-01T09:38:01.400Z,3.00
2019-06-01T09:40:32.187Z,1.90
2019-06-01T09:43:02.038Z,2.93
2019-06-01T09:45:32.831Z,2.80
2019-06-01T09:48:02.309Z,3.00
2019-06-01T09:50:31.724Z,3.00
2019-06-01T09:53:00.677Z,3.40
2019-06-01T09:55:31.368Z,3.13
2019-06-01T09:58:02.209Z,3.30
2019-06-01T10:00:32.423Z,3.53
2019-06-01T10:03:01.605Z,4.70
2019-06-01T10:05:32.396Z,5.63
2019-06-01T10:08:01.772Z,3.60
2019-06-01T10:10:32.165Z,3.57
2019-06-01T10:13:01.672Z,3.77
2019-06-01T10:15:30.447Z,4.60
2019-06-01T10:17:59.568Z,3.87
2019-06-01T10:20:28.496Z,3.50
2019-06-01T10:22:58.709Z,2.90
2019-06-01T10:25:27.861Z,3.67
2019-06-01T10:27:57.636Z,3.03
2019-06-01T10:30:27.421Z,3.47
2019-06-01T10:32:56.703Z,2.67
2019-06-01T10:35:25.644Z,3.50
2019-06-01T10:37:54.924Z,2.57
2019-06-01T10:40:24.206Z,2.93
2019-06-01T10:42:53.920Z,2.30
2019-06-01T10:45:23.228Z,2.70
2019-06-01T10:47:52.224Z,3.80
2019-06-01T10:50:21.920Z,2.50
2019-06-01T10:52:50.716Z,2.70
2019-06-01T10:55:19.976Z,2.13
2019-06-01T10:57:49.489Z,1.90
2019-06-01T11:00:37.095Z,2.50
2019-06-01T11:02:51.880Z,3.23
2019-06-01T11:07:55.200Z,2.60
2019-06-01T11:10:24.233Z,2.20
2019-06-01T11:12:53.787Z,2.30
2019-06-01T11:15:22.725Z,2.53
2019-06-01T11:17:52.004Z,2.40
2019-06-01T11:20:20.997Z,1.90
2019-06-01T11:22:50.303Z,2.20
2019-06-01T11:25:19.578Z,2.73
2019-06-01T11:27:48.439Z,1.87
2019-06-01T11:30:17.688Z,2.07
2019-06-01T11:32:46.856Z,2.23
2019-06-01T11:35:16.157Z,2.27
2019-06-01T11:37:45.376Z,2.20
2019-06-01T11:40:14.965Z,1.80
2019-06-01T11:42:45.081Z,2.80
2019-06-01T11:45:14.998Z,2.80
2019-06-01T11:47:45.147Z,1.80
2019-06-01T11:50:15.371Z,2.37
2019-06-01T11:52:45.466Z,4.27
2019-06-01T11:55:14.959Z,28.83
2019-06-01T11:57:44.082Z,1.73
2019-06-01T12:00:13.545Z,2.30
2019-06-01T12:02:43.827Z,1.90
2019-06-01T12:05:13.944Z,1.67
2019-06-01T12:07:43.903Z,1.57
2019-06-01T12:10:13.729Z,2.40
2019-06-01T12:12:44.214Z,2.20
2019-06-01T12:15:14.380Z,2.27
2019-06-01T12:17:44.711Z,1.87
2019-06-01T12:20:14.108Z,1.97
2019-06-01T12:22:43.431Z,2.90
2019-06-01T12:25:12.484Z,1.80
2019-06-01T12:27:42.012Z,1.70
2019-06-01T12:30:11.936Z,1.80
2019-06-01T12:32:41.965Z,1.90
2019-06-01T12:35:11.546Z,1.80
2019-06-01T12:38:00.787Z,6.25
2019-06-01T12:40:12.290Z,1.80
2019-06-01T12:42:41.700Z,2.23
2019-06-01T12:45:22.466Z,1.92
2019-06-01T12:47:54.354Z,1.95
2019-06-01T12:50:20.294Z,1.67
2019-06-01T12:52:49.597Z,1.70
2019-06-01T12:55:18.679Z,3.07
2019-06-01T12:57:49.288Z,2.90
2019-06-01T13:00:19.469Z,1.90
2019-06-01T13:02:56.456Z,1.87
2019-06-01T13:05:19.944Z,1.77
2019-06-01T13:07:58.552Z,1.93
2019-06-01T13:10:20.695Z,2.00
2019-06-01T13:12:52.193Z,2.00
2019-06-01T13:15:21.646Z,2.10
2019-06-01T13:17:51.496Z,1.90
2019-06-01T13:20:20.563Z,2.07
2019-06-01T13:22:49.969Z,3.03
2019-06-01T13:25:19.108Z,1.80
2019-06-01T13:27:48.852Z,1.93
2019-06-01T13:30:18.256Z,1.83
2019-06-01T13:32:48.264Z,3.93
2019-06-01T13:35:17.655Z,2.13
2019-06-01T13:37:46.679Z,2.00
2019-06-01T13:40:16.688Z,1.60
2019-06-01T13:42:46.988Z,1.70
2019-06-01T13:45:16.259Z,1.90
2019-06-01T13:47:45.759Z,1.90
2019-06-01T13:50:15.336Z,3.07
2019-06-01T13:52:44.203Z,1.77
2019-06-01T13:55:13.904Z,3.60
2019-06-01T13:57:44.074Z,1.70
2019-06-01T14:00:15.864Z,1.55
2019-06-01T14:02:49.021Z,1.90
2019-06-01T14:05:15.527Z,1.85
2019-06-01T14:07:45.445Z,1.65
2019-06-01T14:10:15.499Z,1.50
2019-06-01T14:12:45.386Z,2.00
2019-06-01T14:15:14.890Z,1.60
2019-06-01T14:17:44.118Z,1.87
2019-06-01T14:20:13.524Z,1.80
2019-06-01T14:22:42.691Z,1.65
2019-06-01T14:25:14.975Z,1.90
2019-06-01T14:27:43.844Z,1.70
2019-06-01T14:30:13.960Z,1.60
2019-06-01T14:32:43.479Z,1.90
2019-06-01T14:35:13.388Z,1.90
2019-06-01T14:37:42.508Z,1.97
2019-06-01T14:40:11.904Z,1.73
2019-06-01T14:42:41.012Z,2.50
2019-06-01T14:45:10.638Z,1.97
2019-06-01T14:47:39.615Z,1.70
2019-06-01T14:50:09.497Z,2.17
2019-06-01T14:52:38.728Z,1.60
2019-06-01T14:55:08.086Z,1.43
2019-06-01T14:57:37.287Z,2.00
2019-06-01T15:00:08.745Z,1.70
2019-06-01T15:02:38.249Z,1.63
2019-06-01T15:05:07.999Z,1.93
2019-06-01T15:07:36.864Z,1.70
2019-06-01T15:10:07.227Z,3.43
2019-06-01T15:12:36.107Z,1.60
2019-06-01T15:15:06.854Z,1.63
2019-06-01T15:17:36.401Z,2.23
2019-06-01T15:20:06.221Z,1.70
2019-06-01T15:22:35.767Z,2.17
2019-06-01T15:25:05.636Z,1.80
2019-06-01T15:27:35.375Z,1.70
2019-06-01T15:30:05.364Z,1.80
2019-06-01T15:32:34.543Z,1.60
2019-06-01T15:35:08.515Z,1.93
2019-06-01T15:37:37.804Z,2.10
2019-06-01T15:40:07.004Z,2.17
2019-06-01T15:42:35.992Z,2.73
2019-06-01T15:45:05.873Z,1.90
2019-06-01T15:47:34.727Z,1.70
2019-06-01T15:50:04.239Z,2.90
2019-06-01T15:52:34.412Z,1.40
2019-06-01T15:55:03.592Z,1.40
2019-06-01T15:57:32.568Z,1.87
2019-06-01T16:00:03.109Z,1.90
2019-06-01T16:02:31.999Z,2.10
2019-06-01T16:05:01.544Z,2.13
2019-06-01T16:07:30.799Z,1.70
2019-06-01T16:10:05.278Z,1.73
2019-06-01T16:12:30.731Z,2.40
2019-06-01T16:15:00.209Z,1.97
2019-06-01T16:17:29.508Z,1.67
2019-06-01T16:19:59.957Z,2.10
2019-06-01T16:22:29.045Z,1.90
2019-06-01T16:24:58.473Z,1.73
2019-06-01T16:27:27.433Z,1.70
2019-06-01T16:29:56.884Z,1.70
2019-06-01T16:32:26.202Z,1.80
2019-06-01T16:34:56.791Z,1.70
2019-06-01T16:37:26.697Z,2.30
2019-06-01T16:40:02.753Z,2.07
2019-06-01T16:42:27.664Z,2.07
2019-06-01T16:44:57.664Z,1.37
2019-06-01T16:47:27.593Z,5.10
2019-06-01T16:49:57.619Z,3.10
2019-06-01T16:52:26.896Z,1.70
2019-06-01T16:54:56.258Z,2.03
2019-06-01T16:57:25.717Z,1.83
2019-06-01T16:59:54.676Z,1.90
2019-06-01T17:02:24.255Z,1.73
2019-06-01T17:04:53.616Z,2.40
2019-06-01T17:07:22.712Z,2.30
2019-06-01T17:09:52.455Z,3.40
2019-06-01T17:12:21.723Z,2.13
2019-06-01T17:14:50.625Z,1.50
2019-06-01T17:17:20.254Z,1.77
2019-06-01T17:19:49.328Z,2.47
2019-06-01T17:22:18.513Z,1.47
2019-06-01T17:24:47.742Z,1.80
2019-06-01T17:27:16.944Z,1.83
2019-06-01T17:29:45.937Z,1.77
2019-06-01T17:32:23.979Z,1.70
2019-06-01T17:34:46.164Z,1.97
2019-06-01T17:37:15.016Z,2.10
2019-06-01T17:39:43.988Z,2.10
2019-06-01T17:42:13.533Z,2.03
2019-06-01T17:44:42.401Z,1.93
2019-06-01T17:47:12.250Z,1.70
2019-06-01T17:49:41.139Z,1.93
2019-06-01T17:52:10.228Z,3.20
2019-06-01T17:54:39.434Z,3.00
2019-06-01T17:57:09.260Z,2.67
2019-06-01T17:59:38.538Z,1.90
2019-06-01T18:02:08.004Z,1.53
2019-06-01T18:04:37.027Z,1.87
2019-06-01T18:07:06.259Z,1.83
2019-06-01T18:09:35.104Z,2.13
2019-06-01T18:12:06.107Z,1.73
2019-06-01T18:14:35.162Z,1.90
2019-06-01T18:17:08.168Z,2.40
2019-06-01T18:19:37.117Z,2.00
2019-06-01T18:22:06.790Z,2.43
2019-06-01T18:24:36.389Z,2.00
2019-06-01T18:27:06.478Z,3.13
2019-06-01T18:29:38.988Z,2.00
2019-06-01T18:32:09.521Z,2.23
2019-06-01T18:34:38.776Z,2.30
2019-06-01T18:37:09.220Z,2.20
2019-06-01T18:39:38.283Z,1.80
2019-06-01T18:42:08.279Z,2.87
2019-06-01T18:44:37.504Z,24.07
2019-06-01T18:47:07.785Z,67.47
2019-06-01T18:49:37.564Z,133.03
2019-06-01T18:52:06.720Z,48.03
2019-06-01T18:54:36.891Z,43.97
2019-06-01T18:57:10.898Z,6.93
2019-06-01T18:59:36.793Z,13.33
2019-06-01T19:02:06.364Z,12.50
2019-06-01T19:04:35.398Z,6.60
2019-06-01T19:07:05.026Z,4.20
2019-06-01T19:09:34.865Z,3.03
2019-06-01T19:12:04.004Z,5.60
2019-06-01T19:14:33.228Z,7.93
2019-06-01T19:17:02.121Z,4.10
2019-06-01T19:19:31.298Z,8.13
2019-06-01T19:22:00.698Z,9.57
2019-06-01T19:24:29.797Z,13.40
2019-06-01T19:26:58.884Z,10.33
2019-06-01T19:29:28.071Z,5.50
2019-06-01T19:31:56.975Z,4.30
2019-06-01T19:34:26.267Z,6.50
2019-06-01T19:36:55.961Z,5.53
2019-06-01T19:39:24.903Z,3.73
2019-06-01T19:41:54.184Z,5.73
2019-06-01T19:44:24.365Z,6.07
2019-06-01T19:46:54.209Z,3.07
2019-06-01T19:49:23.404Z,3.17
2019-06-01T19:51:52.949Z,5.40
2019-06-01T19:54:22.117Z,3.00
2019-06-01T19:56:51.616Z,5.30
2019-06-01T19:59:22.149Z,5.27
2019-06-01T20:01:51.889Z,4.77
2019-06-01T20:04:20.793Z,3.37
2019-06-01T20:06:50.534Z,3.00
2019-06-01T20:09:19.824Z,4.00
2019-06-01T20:12:01.302Z,3.53
2019-06-01T20:14:20.375Z,3.20
2019-06-01T20:16:49.940Z,3.03
2019-06-01T20:19:19.822Z,3.30
2019-06-01T20:21:49.880Z,3.90
2019-06-01T20:24:19.416Z,3.13
2019-06-01T20:26:49.659Z,2.70
2019-06-01T20:29:19.798Z,2.90
2019-06-01T20:31:48.768Z,3.87
2019-06-01T20:34:17.978Z,3.37
2019-06-01T20:36:47.197Z,2.93
2019-06-01T20:39:16.372Z,2.97
2019-06-01T20:41:45.631Z,3.30
2019-06-01T20:44:14.763Z,3.90
2019-06-01T20:46:44.078Z,3.00
2019-06-01T20:49:14.486Z,2.87
2019-06-01T20:51:44.103Z,3.17
2019-06-01T20:54:13.237Z,7.60
2019-06-01T20:56:42.705Z,4.67
2019-06-01T20:59:13.319Z,4.73
2019-06-01T21:01:42.849Z,5.23
2019-06-01T21:04:11.735Z,5.00
2019-06-01T21:06:40.937Z,5.30
2019-06-01T21:09:09.922Z,5.43
2019-06-01T21:11:39.532Z,6.93
2019-06-01T21:14:08.587Z,6.30
2019-06-01T21:16:37.734Z,4.80
2019-06-01T21:19:07.228Z,4.17
2019-06-01T21:21:36.345Z,4.23
2019-06-01T21:24:05.637Z,3.90
2019-06-01T21:26:34.895Z,4.13
2019-06-01T21:29:05.872Z,7.70
2019-06-01T21:31:35.774Z,2.90
2019-06-01T21:34:04.712Z,3.97
2019-06-01T21:36:34.276Z,4.10
2019-06-01T21:39:04.193Z,3.00
2019-06-01T21:41:33.884Z,4.03
2019-06-01T21:44:03.119Z,3.43
2019-06-01T21:46:31.957Z,3.30
2019-06-01T21:49:00.831Z,5.80
2019-06-01T21:51:30.186Z,3.13
2019-06-01T21:53:59.021Z,4.10
2019-06-01T21:56:28.161Z,3.97
2019-06-01T21:58:57.043Z,3.73
2019-06-01T22:01:27.032Z,3.77
2019-06-01T22:03:56.115Z,3.40
2019-06-01T22:06:25.705Z,3.67
2019-06-01T22:08:55.276Z,3.73
2019-06-01T22:11:25.567Z,4.47
2019-06-01T22:13:54.846Z,3.90
2019-06-01T22:16:23.764Z,4.00
2019-06-01T22:18:52.928Z,3.10
2019-06-01T22:21:23.701Z,3.50
2019-06-01T22:23:53.215Z,4.10
2019-06-01T22:26:23.938Z,3.50
2019-06-01T22:28:52.818Z,3.47
2019-06-01T22:31:22.316Z,3.70
2019-06-01T22:33:51.859Z,4.07
2019-06-01T22:36:20.743Z,3.43
2019-06-01T22:38:49.643Z,3.83
2019-06-01T22:41:19.867Z,3.83
2019-06-01T22:43:49.491Z,4.47
2019-06-01T22:46:18.772Z,3.37
2019-06-01T22:48:47.616Z,3.03
2019-06-01T22:51:17.268Z,3.70
2019-06-01T22:53:46.365Z,3.60
2019-06-01T22:56:15.331Z,4.07
2019-06-01T22:58:44.147Z,4.27
2019-06-01T23:01:13.248Z,6.23
2019-06-01T23:03:42.120Z,4.40
2019-06-01T23:06:11.455Z,3.77
2019-06-01T23:08:40.688Z,4.30
2019-06-01T23:11:09.524Z,3.40
2019-06-01T23:13:52.353Z,3.80
2019-06-01T23:16:09.764Z,3.83
2019-06-01T23:18:38.780Z,5.90
2019-06-01T23:21:08.373Z,4.10
2019-06-01T23:23:37.176Z,6.40
2019-06-01T23:26:06.498Z,4.50
2019-06-01T23:28:38.620Z,4.13
2019-06-01T23:31:06.463Z,3.83
2019-06-01T23:33:35.596Z,4.00
2019-06-01T23:36:05.043Z,5.20
2019-06-01T23:38:33.819Z,4.63
2019-06-01T23:41:03.072Z,4.30
2019-06-01T23:43:33.055Z,3.97
2019-06-01T23:46:02.596Z,4.30
2019-06-01T23:48:34.125Z,3.80
2019-06-01T23:51:03.503Z,3.70
2019-06-01T23:53:33.790Z,5.50
2019-06-01T23:56:03.097Z,3.73
2019-06-01T23:58:32.635Z,4.50
